createdAt,value
2024-03-16T00:00:17.869Z,78.36
2024-03-16T00:01:27.133Z,76.66
2024-03-16T00:02:35.243Z,76.41
2024-03-16T00:03:44.156Z,76.66
2024-03-16T00:04:53.459Z,77.39
2024-03-16T00:06:02.862Z,79.83
2024-03-16T00:07:11.027Z,77.14
2024-03-16T00:08:20.192Z,77.63
2024-03-16T00:09:29.191Z,77.39
2024-03-16T00:10:38.506Z,81.29
2024-03-16T00:11:47.726Z,81.78
2024-03-16T00:12:56.637Z,82.03
2024-03-16T00:14:05.888Z,84.47
2024-03-16T00:15:15.157Z,86.91
2024-03-16T00:16:24.299Z,85.2
2024-03-16T00:17:33.493Z,85.44
2024-03-16T00:18:42.727Z,87.64
2024-03-16T00:19:51.724Z,86.91
2024-03-16T00:21:00.955Z,87.89
2024-03-16T00:22:09.364Z,88.13
2024-03-16T00:23:18.106Z,88.86
2024-03-16T00:24:27.521Z,88.13
2024-03-16T00:25:36.762Z,88.37
2024-03-16T00:26:45.913Z,88.86
2024-03-16T00:27:55.113Z,87.64
2024-03-16T00:29:04.337Z,90.33
2024-03-16T00:30:13.164Z,90.33
2024-03-16T00:31:22.437Z,90.82
2024-03-16T00:33:40.976Z,91.55
2024-03-16T00:34:50.086Z,91.55
2024-03-16T00:35:59.024Z,91.3
2024-03-16T00:37:07.342Z,92.28
2024-03-16T00:38:16.414Z,92.04
2024-03-16T00:39:25.834Z,90.08
2024-03-16T00:40:34.887Z,91.06
2024-03-16T00:41:44.136Z,92.28
2024-03-16T00:42:53.149Z,90.57
2024-03-16T00:44:02.573Z,90.08
2024-03-16T00:45:11.658Z,90.82
2024-03-16T00:46:20.669Z,89.59
2024-03-16T00:47:30.040Z,91.3
2024-03-16T00:48:39.097Z,88.37
2024-03-16T00:49:48.152Z,90.08
2024-03-16T00:50:57.634Z,88.13
2024-03-16T00:52:05.730Z,88.86
2024-03-16T00:53:14.637Z,88.37
2024-03-16T00:54:23.848Z,86.91
2024-03-16T00:55:33.155Z,87.64
2024-03-16T00:56:42.285Z,86.18
2024-03-16T00:57:51.615Z,88.37
2024-03-16T00:59:00.828Z,88.37
2024-03-16T01:01:18.829Z,87.15
2024-03-16T01:02:28.210Z,89.11
2024-03-16T01:03:37.186Z,86.18
2024-03-16T01:04:46.665Z,87.64
2024-03-16T01:05:55.749Z,88.86
2024-03-16T01:07:04.020Z,88.37
2024-03-16T01:08:13.166Z,88.37
2024-03-16T01:09:22.298Z,88.62
2024-03-16T01:10:31.549Z,89.11
2024-03-16T01:11:40.467Z,85.44
2024-03-16T01:12:49.756Z,87.64
2024-03-16T01:13:58.887Z,85.2
2024-03-16T01:15:08.085Z,85.2
2024-03-16T01:16:17.116Z,83.74
2024-03-16T01:17:26.404Z,81.54
2024-03-16T01:18:35.791Z,79.1
2024-03-16T01:19:44.921Z,73.73
2024-03-16T01:20:53.807Z,71.53
2024-03-16T01:22:02.199Z,69.09
2024-03-16T01:23:11.150Z,66.65
2024-03-16T01:25:29.521Z,67.13
2024-03-16T01:27:47.821Z,67.62
2024-03-16T01:28:57.035Z,68.6
2024-03-16T01:30:06.176Z,68.6
2024-03-16T01:31:15.336Z,69.58
2024-03-16T01:32:24.680Z,70.06
2024-03-16T01:33:33.753Z,68.84
2024-03-16T01:34:42.893Z,71.53
2024-03-16T01:35:52.223Z,73.97
2024-03-16T01:38:09.492Z,71.53
2024-03-16T01:39:17.787Z,77.39
2024-03-16T01:40:26.020Z,77.88
2024-03-16T01:41:34.400Z,75.19
2024-03-16T01:42:42.343Z,79.1
2024-03-16T01:43:51.431Z,83.98
2024-03-16T01:45:00.716Z,83.74
2024-03-16T01:46:09.829Z,85.69
2024-03-16T01:47:19.010Z,86.18
2024-03-16T01:48:28.492Z,84.22
2024-03-16T01:49:37.436Z,86.66
2024-03-16T01:50:46.563Z,85.69
2024-03-16T01:51:55.732Z,83.98
2024-03-16T01:53:03.994Z,86.18
2024-03-16T01:54:12.376Z,85.44
2024-03-16T01:55:21.389Z,85.69
2024-03-16T01:56:30.771Z,84.96
2024-03-16T01:57:39.680Z,88.37
2024-03-16T01:58:49.027Z,84.96
2024-03-16T01:59:58.273Z,85.2
2024-03-16T02:01:07.294Z,85.69
2024-03-16T02:02:16.271Z,86.66
2024-03-16T02:03:25.489Z,87.4
2024-03-16T02:04:34.790Z,86.42
2024-03-16T02:05:44.037Z,87.89
2024-03-16T02:06:53.100Z,86.42
2024-03-16T02:08:02.401Z,87.4
2024-03-16T02:09:10.495Z,86.91
2024-03-16T02:10:19.593Z,88.13
2024-03-16T02:11:28.663Z,89.59
2024-03-16T02:12:38.052Z,88.13
2024-03-16T02:13:47.036Z,87.64
2024-03-16T02:14:56.459Z,87.15
2024-03-16T02:16:04.383Z,85.93
2024-03-16T02:17:12.995Z,86.91
2024-03-16T02:19:31.013Z,85.2
2024-03-16T02:20:40.067Z,83.25
2024-03-16T02:21:49.387Z,83.49
2024-03-16T02:22:58.574Z,84.71
2024-03-16T02:24:07.907Z,85.93
2024-03-16T02:25:17.089Z,83.25
2024-03-16T02:26:26.163Z,83
2024-03-16T02:27:35.102Z,82.03
2024-03-16T02:28:44.273Z,85.93
2024-03-16T02:29:53.616Z,83.98
2024-03-16T02:31:03.018Z,83.98
2024-03-16T02:32:11.008Z,82.76
2024-03-16T02:34:29.482Z,84.71
2024-03-16T02:35:37.387Z,86.66
2024-03-16T02:36:45.569Z,86.18
2024-03-16T02:37:54.881Z,85.2
2024-03-16T02:39:04.036Z,85.93
2024-03-16T02:40:13.342Z,85.44
2024-03-16T02:41:22.606Z,84.96
2024-03-16T02:42:31.427Z,84.96
2024-03-16T02:43:40.590Z,85.2
2024-03-16T02:44:49.891Z,83.25
2024-03-16T02:45:59.121Z,86.18
2024-03-16T02:47:07.238Z,84.71
2024-03-16T02:48:15.566Z,84.47
2024-03-16T02:49:24.789Z,85.2
2024-03-16T02:50:33.839Z,85.2
2024-03-16T02:51:43.124Z,92.04
2024-03-16T02:52:52.325Z,85.93
2024-03-16T02:54:01.187Z,84.96
2024-03-16T02:55:10.332Z,85.2
2024-03-16T02:56:19.758Z,86.18
2024-03-16T02:57:29.029Z,89.35
2024-03-16T02:58:37.847Z,85.44
2024-03-16T02:59:47.105Z,86.18
2024-03-16T03:00:56.210Z,87.89
2024-03-16T03:02:05.521Z,86.18
2024-03-16T03:03:13.584Z,85.2
2024-03-16T03:04:22.708Z,87.4
2024-03-16T03:05:32.008Z,84.47
2024-03-16T03:06:41.206Z,85.69
2024-03-16T03:07:50.287Z,85.44
2024-03-16T03:08:59.596Z,84.96
2024-03-16T03:10:07.810Z,84.96
2024-03-16T03:11:16.137Z,86.66
2024-03-16T03:12:24.244Z,85.44
2024-03-16T03:13:33.182Z,86.66
2024-03-16T03:14:42.620Z,85.2
2024-03-16T03:15:51.532Z,85.2
2024-03-16T03:17:00.985Z,86.66
2024-03-16T03:18:10.100Z,87.89
2024-03-16T03:19:19.184Z,88.13
2024-03-16T03:20:28.304Z,86.91
2024-03-16T03:21:37.622Z,88.86
2024-03-16T03:22:46.870Z,87.15
2024-03-16T03:23:55.937Z,87.89
2024-03-16T03:25:04.961Z,85.2
2024-03-16T03:26:14.248Z,86.66
2024-03-16T03:27:22.238Z,85.93
2024-03-16T03:28:31.700Z,87.64
2024-03-16T03:29:40.916Z,86.91
2024-03-16T03:30:50.098Z,86.18
2024-03-16T03:31:58.926Z,82.51
2024-03-16T03:33:08.504Z,83.74
2024-03-16T03:34:16.460Z,85.2
2024-03-16T03:35:24.553Z,82.27
2024-03-16T03:36:33.984Z,82.51
2024-03-16T03:37:42.844Z,81.54
2024-03-16T03:38:52.158Z,81.05
2024-03-16T03:41:10.508Z,81.78
2024-03-16T03:42:19.687Z,84.22
2024-03-16T03:43:29.122Z,81.78
2024-03-16T03:44:38.231Z,81.05
2024-03-16T03:45:47.245Z,80.32
2024-03-16T03:46:56.533Z,84.47
2024-03-16T03:48:05.759Z,79.1
2024-03-16T03:49:14.568Z,79.83
2024-03-16T03:50:22.828Z,79.58
2024-03-16T03:51:32.130Z,79.83
2024-03-16T03:52:41.285Z,78.12
2024-03-16T03:53:50.325Z,78.61
2024-03-16T03:54:59.654Z,79.1
2024-03-16T03:56:08.663Z,77.39
2024-03-16T03:57:17.927Z,79.1
2024-03-16T03:58:26.039Z,77.39
2024-03-16T03:59:34.176Z,77.63
2024-03-16T04:00:43.440Z,79.58
2024-03-16T04:01:52.847Z,80.81
2024-03-16T04:03:01.717Z,77.63
2024-03-16T04:04:11.017Z,78.36
2024-03-16T04:05:20.166Z,77.88
2024-03-16T04:06:29.546Z,77.88
2024-03-16T04:07:38.411Z,78.12
2024-03-16T04:08:47.648Z,78.61
2024-03-16T04:09:56.832Z,79.1
2024-03-16T04:11:06.190Z,80.07
2024-03-16T04:12:15.062Z,80.56
2024-03-16T04:13:24.370Z,81.29
2024-03-16T04:14:32.652Z,80.56
2024-03-16T04:15:41.755Z,79.83
2024-03-16T04:16:51.010Z,79.1
2024-03-16T04:17:59.947Z,76.66
2024-03-16T04:19:09.146Z,77.14
2024-03-16T04:20:18.578Z,76.41
2024-03-16T04:21:26.657Z,73.97
2024-03-16T04:22:35.023Z,73.48
2024-03-16T04:23:43.852Z,75.68
2024-03-16T04:24:53.050Z,77.39
2024-03-16T04:26:02.194Z,74.21
2024-03-16T04:27:11.436Z,74.95
2024-03-16T04:28:20.550Z,76.66
2024-03-16T04:29:29.704Z,78.36
2024-03-16T04:30:39.148Z,77.14
2024-03-16T04:31:48.072Z,79.1
2024-03-16T04:32:57.240Z,77.63
2024-03-16T04:34:06.410Z,79.58
2024-03-16T04:35:15.565Z,80.56
2024-03-16T04:36:24.772Z,78.61
2024-03-16T04:37:32.926Z,79.1
2024-03-16T04:38:42.185Z,82.03
2024-03-16T04:39:51.268Z,76.9
2024-03-16T04:41:00.478Z,79.58
2024-03-16T04:42:09.643Z,77.39
2024-03-16T04:43:18.788Z,77.39
2024-03-16T04:44:28.025Z,74.95
2024-03-16T04:45:37.136Z,73.73
2024-03-16T04:46:46.377Z,71.77
2024-03-16T04:47:54.740Z,72.75
2024-03-16T04:49:02.698Z,70.8
2024-03-16T04:50:12.016Z,72.5
2024-03-16T04:51:21.237Z,71.77
2024-03-16T04:52:30.433Z,76.66
2024-03-16T04:53:39.650Z,77.63
2024-03-16T04:54:48.599Z,71.04
2024-03-16T04:55:57.877Z,76.41
2024-03-16T04:57:07.307Z,74.46
2024-03-16T04:58:16.406Z,73.97
2024-03-16T04:59:25.502Z,73.24
2024-03-16T05:00:34.518Z,75.43
2024-03-16T05:01:43.835Z,76.41
2024-03-16T05:02:53.224Z,75.92
2024-03-16T05:04:01.037Z,77.63
2024-03-16T05:05:10.123Z,78.12
2024-03-16T05:06:19.573Z,77.88
2024-03-16T05:07:28.722Z,77.88
2024-03-16T05:08:37.722Z,77.14
2024-03-16T05:09:47.179Z,76.66
2024-03-16T05:10:56.121Z,76.17
2024-03-16T05:12:04.365Z,74.46
2024-03-16T05:13:12.655Z,73.24
2024-03-16T05:14:20.675Z,76.9
2024-03-16T05:15:29.716Z,73.24
2024-03-16T05:16:39.113Z,74.46
2024-03-16T05:17:48.222Z,71.53
2024-03-16T05:18:57.275Z,71.77
2024-03-16T05:20:06.646Z,70.31
2024-03-16T05:21:15.899Z,68.11
2024-03-16T05:22:25.123Z,67.13
2024-03-16T05:23:34.153Z,67.87
2024-03-16T05:24:43.121Z,67.13
2024-03-16T05:25:52.553Z,67.38
2024-03-16T05:27:01.841Z,64.45
2024-03-16T05:28:10.649Z,63.23
2024-03-16T05:29:18.818Z,64.94
2024-03-16T05:30:28.115Z,63.72
2024-03-16T05:31:37.154Z,63.47
2024-03-16T05:32:46.619Z,62.74
2024-03-16T05:33:55.750Z,65.67
2024-03-16T05:36:14.208Z,85.93
2024-03-16T05:37:23.208Z,62.74
2024-03-16T05:38:32.498Z,63.23
2024-03-16T05:39:41.496Z,66.16
2024-03-16T05:40:50.561Z,64.2
2024-03-16T05:41:59.712Z,65.42
2024-03-16T05:43:09.120Z,70.31
2024-03-16T05:45:26.337Z,65.42
2024-03-16T05:46:35.737Z,70.31
2024-03-16T05:47:44.925Z,67.13
2024-03-16T05:48:54.052Z,71.77
2024-03-16T05:50:03.228Z,73.24
2024-03-16T05:51:12.132Z,74.21
2024-03-16T05:52:21.274Z,75.92
2024-03-16T05:53:30.650Z,72.99
2024-03-16T05:54:39.675Z,76.66
2024-03-16T05:55:49.087Z,78.12
2024-03-16T05:56:58.000Z,79.83
2024-03-16T05:58:07.224Z,80.32
2024-03-16T05:59:15.616Z,82.76
2024-03-16T06:00:24.638Z,93.75
2024-03-16T06:02:42.886Z,84.22
2024-03-16T06:03:52.152Z,88.13
2024-03-16T06:05:01.506Z,85.2
2024-03-16T06:07:19.556Z,84.96
2024-03-16T06:08:27.739Z,83.25
2024-03-16T06:10:46.087Z,83.25
2024-03-16T06:11:54.274Z,83.98
2024-03-16T06:13:03.447Z,83.74
2024-03-16T06:14:12.609Z,83
2024-03-16T06:15:21.808Z,83.49
2024-03-16T06:16:30.987Z,84.47
2024-03-16T06:17:40.132Z,80.81
2024-03-16T06:18:49.310Z,83
2024-03-16T06:19:58.473Z,83.25
2024-03-16T06:21:07.655Z,81.05
2024-03-16T06:22:16.821Z,91.06
2024-03-16T06:23:26.031Z,92.52
2024-03-16T06:24:35.180Z,83.25
2024-03-16T06:25:44.345Z,92.52
2024-03-16T06:26:52.526Z,81.05
2024-03-16T06:28:01.692Z,81.78
2024-03-16T06:29:10.881Z,81.29
2024-03-16T06:30:20.051Z,78.85
2024-03-16T06:31:29.219Z,74.46
2024-03-16T06:32:37.441Z,75.19
2024-03-16T06:33:45.604Z,73.97
2024-03-16T06:34:54.779Z,83.25
2024-03-16T06:36:02.962Z,72.26
2024-03-16T06:37:12.127Z,73.73
2024-03-16T06:38:21.341Z,73.48
2024-03-16T06:39:30.482Z,81.54
2024-03-16T06:40:39.684Z,80.56
2024-03-16T06:41:48.862Z,82.03
2024-03-16T06:42:58.004Z,75.19
2024-03-16T06:44:07.197Z,73.97
2024-03-16T06:45:16.351Z,75.19
2024-03-16T06:46:25.534Z,84.96
2024-03-16T06:47:34.699Z,77.39
2024-03-16T06:48:43.860Z,77.14
2024-03-16T06:49:53.041Z,79.34
2024-03-16T06:51:01.243Z,81.54
2024-03-16T06:52:10.410Z,83.49
2024-03-16T06:53:19.594Z,88.13
2024-03-16T06:54:28.749Z,87.89
2024-03-16T06:55:37.915Z,87.4
2024-03-16T06:56:47.107Z,89.35
2024-03-16T06:57:56.258Z,87.15
2024-03-16T06:59:05.441Z,90.33
2024-03-16T07:00:14.605Z,89.59
2024-03-16T07:01:23.778Z,88.62
2024-03-16T07:03:42.148Z,88.62
2024-03-16T07:04:51.308Z,89.59
2024-03-16T07:05:59.498Z,88.86
2024-03-16T07:07:07.707Z,89.35
2024-03-16T07:08:15.884Z,90.08
2024-03-16T07:09:25.055Z,89.59
2024-03-16T07:11:43.397Z,90.08
2024-03-16T07:12:52.559Z,88.62
2024-03-16T07:14:01.745Z,90.33
2024-03-16T07:15:10.897Z,88.86
2024-03-16T07:16:20.082Z,88.62
2024-03-16T07:18:38.424Z,88.13
2024-03-16T07:19:47.586Z,88.37
2024-03-16T07:20:55.807Z,89.35
2024-03-16T07:22:03.998Z,88.37
2024-03-16T07:23:13.177Z,88.86
2024-03-16T07:24:22.339Z,90.57
2024-03-16T07:25:31.487Z,88.62
2024-03-16T07:26:40.668Z,88.62
2024-03-16T07:27:49.858Z,89.59
2024-03-16T07:28:59.022Z,89.59
2024-03-16T07:30:08.215Z,89.35
2024-03-16T07:31:17.359Z,88.37
2024-03-16T07:32:25.561Z,88.62
2024-03-16T07:33:33.751Z,88.86
2024-03-16T07:34:42.916Z,87.4
2024-03-16T07:35:52.102Z,88.13
2024-03-16T07:38:10.426Z,89.35
2024-03-16T07:39:19.605Z,89.11
2024-03-16T07:40:28.805Z,90.82
2024-03-16T07:41:37.957Z,88.86
2024-03-16T07:42:47.120Z,87.15
2024-03-16T07:43:56.310Z,88.37
2024-03-16T07:45:05.464Z,88.37
2024-03-16T07:46:14.670Z,90.33
2024-03-16T07:47:23.809Z,90.57
2024-03-16T07:48:32.004Z,89.35
2024-03-16T07:49:40.212Z,88.37
2024-03-16T07:50:49.361Z,90.08
2024-03-16T07:51:58.527Z,90.82
2024-03-16T07:53:07.707Z,90.82
2024-03-16T07:54:16.902Z,90.08
2024-03-16T07:55:26.055Z,88.86
2024-03-16T07:56:34.265Z,87.89
2024-03-16T07:57:42.439Z,89.84
2024-03-16T07:58:50.653Z,89.59
2024-03-16T07:59:59.856Z,90.08
2024-03-16T08:01:09.077Z,90.08
2024-03-16T08:02:18.156Z,88.62
2024-03-16T08:03:27.337Z,92.04
2024-03-16T08:04:36.517Z,88.37
2024-03-16T08:05:45.659Z,89.35
2024-03-16T08:06:54.853Z,88.86
2024-03-16T08:08:04.015Z,91.55
2024-03-16T08:09:13.180Z,88.62
2024-03-16T08:10:22.384Z,89.11
2024-03-16T08:11:31.537Z,88.86
2024-03-16T08:12:40.708Z,92.28
2024-03-16T08:13:48.902Z,89.35
2024-03-16T08:14:58.060Z,89.11
2024-03-16T08:16:07.262Z,87.89
2024-03-16T08:17:16.422Z,88.62
2024-03-16T08:18:25.606Z,89.11
2024-03-16T08:19:34.744Z,85.93
2024-03-16T08:21:53.108Z,93.01
2024-03-16T08:23:02.272Z,89.35
2024-03-16T08:24:10.540Z,86.91
2024-03-16T08:25:18.664Z,88.13
2024-03-16T08:26:27.837Z,89.35
2024-03-16T08:27:37.002Z,86.42
2024-03-16T08:28:46.169Z,87.64
2024-03-16T08:29:55.337Z,88.13
2024-03-16T08:31:04.518Z,86.91
2024-03-16T08:32:13.691Z,86.91
2024-03-16T08:33:22.868Z,87.15
2024-03-16T08:34:32.034Z,88.62
2024-03-16T08:35:41.238Z,86.66
2024-03-16T08:36:50.381Z,86.91
2024-03-16T08:37:59.562Z,87.89
2024-03-16T08:39:08.745Z,87.64
2024-03-16T08:40:16.937Z,86.42
2024-03-16T08:41:26.104Z,87.4
2024-03-16T08:42:35.314Z,87.4
2024-03-16T08:44:53.727Z,89.35
2024-03-16T08:46:02.805Z,86.91
2024-03-16T08:47:11.948Z,87.4
2024-03-16T08:48:21.133Z,87.15
2024-03-16T08:49:30.286Z,89.59
2024-03-16T08:50:39.468Z,87.15
2024-03-16T08:51:48.649Z,89.11
2024-03-16T08:52:56.854Z,89.35
2024-03-16T08:54:05.058Z,91.06
2024-03-16T08:55:13.224Z,89.35
2024-03-16T08:56:22.421Z,91.3
2024-03-16T08:57:31.564Z,90.82
2024-03-16T08:58:40.737Z,93.99
2024-03-16T08:59:49.909Z,91.3
2024-03-16T09:00:59.071Z,94.48
2024-03-16T09:02:08.270Z,94.48
2024-03-16T09:03:17.428Z,94.48
2024-03-16T09:04:26.592Z,94.23
2024-03-16T09:05:35.760Z,94.48
2024-03-16T09:06:44.960Z,92.77
2024-03-16T09:07:54.126Z,94.97
2024-03-16T09:09:03.294Z,92.52
2024-03-16T09:10:11.505Z,96.92
2024-03-16T09:11:20.642Z,93.75
2024-03-16T09:12:29.823Z,93.01
2024-03-16T09:13:38.983Z,95.45
2024-03-16T09:14:48.154Z,96.67
2024-03-16T09:17:06.534Z,94.97
2024-03-16T09:18:14.701Z,96.67
2024-03-16T09:19:22.886Z,98.38
2024-03-16T09:20:32.063Z,98.87
2024-03-16T09:21:41.230Z,99.12
2024-03-16T09:22:50.411Z,96.67
2024-03-16T09:23:59.578Z,99.6
2024-03-16T09:25:08.759Z,102.29
2024-03-16T09:27:27.128Z,97.41
2024-03-16T09:28:36.279Z,98.87
2024-03-16T09:29:45.443Z,99.12
2024-03-16T09:30:54.614Z,99.12
2024-03-16T09:32:03.781Z,100.34
2024-03-16T09:33:12.979Z,96.19
2024-03-16T09:34:21.156Z,98.14
2024-03-16T09:35:30.307Z,95.45
2024-03-16T09:36:39.486Z,97.65
2024-03-16T09:37:48.669Z,93.26
2024-03-16T09:38:57.836Z,94.23
2024-03-16T09:40:07.009Z,94.97
2024-03-16T09:41:16.205Z,93.75
2024-03-16T09:42:24.354Z,97.16
2024-03-16T09:43:32.560Z,92.28
2024-03-16T09:44:40.748Z,92.28
2024-03-16T09:45:49.931Z,91.3
2024-03-16T09:46:59.083Z,91.55
2024-03-16T09:48:08.278Z,92.28
2024-03-16T09:49:17.444Z,91.3
2024-03-16T09:50:26.607Z,90.57
2024-03-16T09:51:35.781Z,92.04
2024-03-16T09:52:44.963Z,91.55
2024-03-16T09:53:54.154Z,92.52
2024-03-16T09:55:03.319Z,90.33
2024-03-16T09:56:12.468Z,92.04
2024-03-16T09:57:21.657Z,91.79
2024-03-16T09:58:30.831Z,90.82
2024-03-16T09:59:38.998Z,90.82
2024-03-16T10:00:48.211Z,90.82
2024-03-16T10:01:57.360Z,91.3
2024-03-16T10:03:06.528Z,92.28
2024-03-16T10:04:15.695Z,93.5
2024-03-16T10:05:24.873Z,93.75
2024-03-16T10:06:33.058Z,92.04
2024-03-16T10:08:50.455Z,91.55
2024-03-16T10:09:59.635Z,92.28
2024-03-16T10:11:08.789Z,90.82
2024-03-16T10:12:17.933Z,91.06
2024-03-16T10:13:27.120Z,90.08
2024-03-16T10:14:36.299Z,91.55
2024-03-16T10:15:45.480Z,91.55
2024-03-16T10:16:54.633Z,92.77
2024-03-16T10:18:03.837Z,90.82
2024-03-16T10:19:12.982Z,91.55
2024-03-16T10:20:22.146Z,90.08
2024-03-16T10:21:31.321Z,92.28
2024-03-16T10:23:48.686Z,91.79
2024-03-16T10:24:56.874Z,94.72
2024-03-16T10:26:05.090Z,95.45
2024-03-16T10:27:14.237Z,94.97
2024-03-16T10:28:23.418Z,97.65
2024-03-16T10:29:32.566Z,93.99
2024-03-16T10:30:41.747Z,96.92
2024-03-16T10:31:50.954Z,100.83
2024-03-16T10:33:00.104Z,97.9
2024-03-16T10:34:09.274Z,99.6
2024-03-16T10:35:18.458Z,98.38
2024-03-16T10:36:26.657Z,96.43
2024-03-16T10:37:34.830Z,97.65
2024-03-16T10:38:43.996Z,96.92
2024-03-16T10:39:53.176Z,96.67
2024-03-16T10:41:02.340Z,96.19
2024-03-16T10:42:11.567Z,94.72
2024-03-16T10:43:20.705Z,94.48
2024-03-16T10:44:29.858Z,95.45
2024-03-16T10:45:39.058Z,95.94
2024-03-16T10:46:48.201Z,94.72
2024-03-16T10:47:57.376Z,94.48
2024-03-16T10:49:06.584Z,94.48
2024-03-16T10:50:15.739Z,96.92
2024-03-16T10:51:24.917Z,93.01
2024-03-16T10:52:33.097Z,92.77
2024-03-16T10:54:51.421Z,92.04
2024-03-16T10:56:00.600Z,95.21
2024-03-16T10:57:09.781Z,93.99
2024-03-16T10:58:18.940Z,95.7
2024-03-16T10:59:28.111Z,93.75
2024-03-16T11:00:36.329Z,96.19
2024-03-16T11:01:44.502Z,93.5
2024-03-16T11:02:52.705Z,92.28
2024-03-16T11:04:01.865Z,93.5
2024-03-16T11:05:11.031Z,93.01
2024-03-16T11:06:20.219Z,92.77
2024-03-16T11:07:29.388Z,92.77
2024-03-16T11:08:38.548Z,93.75
2024-03-16T11:09:47.741Z,93.75
2024-03-16T11:10:56.897Z,96.19
2024-03-16T11:12:06.080Z,91.3
2024-03-16T11:13:15.362Z,94.97
2024-03-16T11:14:24.425Z,96.43
2024-03-16T11:15:33.594Z,94.72
2024-03-16T11:16:42.900Z,93.01
2024-03-16T11:17:51.177Z,92.77
2024-03-16T11:19:00.423Z,96.92
2024-03-16T11:20:09.516Z,95.45
2024-03-16T11:21:18.466Z,92.77
2024-03-16T11:22:27.700Z,92.77
2024-03-16T11:23:37.023Z,93.75
2024-03-16T11:24:45.294Z,91.55
2024-03-16T11:25:53.457Z,92.77
2024-03-16T11:27:02.396Z,94.72
2024-03-16T11:28:11.836Z,92.28
2024-03-16T11:29:21.006Z,92.28
2024-03-16T11:30:30.165Z,92.77
2024-03-16T11:31:39.054Z,92.77
2024-03-16T11:32:48.229Z,92.52
2024-03-16T11:33:57.565Z,94.48
2024-03-16T11:35:06.653Z,93.5
2024-03-16T11:36:15.744Z,93.75
2024-03-16T11:37:24.914Z,95.45
2024-03-16T11:38:34.122Z,92.28
2024-03-16T11:39:43.277Z,91.55
2024-03-16T11:40:51.477Z,93.5
2024-03-16T11:42:00.625Z,92.28
2024-03-16T11:43:09.812Z,92.28
2024-03-16T11:44:19.097Z,92.52
2024-03-16T11:45:28.139Z,92.77
2024-03-16T11:46:37.329Z,91.3
2024-03-16T11:47:45.525Z,92.28
2024-03-16T11:48:53.699Z,91.3
2024-03-16T11:50:01.926Z,89.35
2024-03-16T11:51:11.063Z,91.3
2024-03-16T11:52:20.222Z,87.64
2024-03-16T11:53:29.408Z,88.86
2024-03-16T11:54:38.578Z,89.11
2024-03-16T11:55:47.784Z,90.08
2024-03-16T11:56:56.921Z,90.08
2024-03-16T11:58:06.121Z,90.82
2024-03-16T11:59:15.258Z,92.04
2024-03-16T12:00:24.464Z,90.57
2024-03-16T12:01:33.642Z,93.01
2024-03-16T12:03:52.040Z,91.06
2024-03-16T12:05:00.255Z,95.45
2024-03-16T12:06:09.487Z,93.01
2024-03-16T12:07:18.535Z,94.48
2024-03-16T12:08:27.707Z,94.23
2024-03-16T12:09:36.840Z,95.45
2024-03-16T12:10:45.998Z,90.33
2024-03-16T12:11:55.207Z,91.55
2024-03-16T12:13:04.393Z,91.55
2024-03-16T12:14:13.528Z,93.99
2024-03-16T12:15:22.701Z,90.08
2024-03-16T12:16:31.870Z,87.64
2024-03-16T12:17:41.056Z,91.3
2024-03-16T12:18:50.226Z,88.86
2024-03-16T12:19:58.407Z,90.08
2024-03-16T12:21:07.569Z,87.64
2024-03-16T12:22:16.766Z,87.4
2024-03-16T12:23:24.964Z,88.62
2024-03-16T12:24:33.130Z,88.37
2024-03-16T12:25:42.307Z,88.13
2024-03-16T12:26:51.490Z,90.08
2024-03-16T12:28:00.637Z,89.11
2024-03-16T12:29:09.812Z,88.37
2024-03-16T12:30:19.001Z,87.89
2024-03-16T12:31:28.155Z,89.84
2024-03-16T12:32:37.366Z,87.4
2024-03-16T12:33:46.531Z,88.37
2024-03-16T12:34:55.692Z,89.11
2024-03-16T12:36:05.083Z,86.42
2024-03-16T12:37:14.426Z,88.62
2024-03-16T12:38:23.265Z,87.4
2024-03-16T12:39:31.619Z,87.4
2024-03-16T12:40:40.849Z,89.84
2024-03-16T12:41:49.998Z,89.35
2024-03-16T12:42:59.245Z,88.13
2024-03-16T12:44:08.501Z,88.86
2024-03-16T12:45:17.528Z,88.37
2024-03-16T12:46:25.572Z,86.66
2024-03-16T12:47:33.652Z,88.13
2024-03-16T12:48:41.992Z,87.4
2024-03-16T12:49:51.321Z,86.91
2024-03-16T12:51:00.351Z,87.4
2024-03-16T12:52:09.471Z,88.62
2024-03-16T12:53:18.849Z,85.93
2024-03-16T12:54:27.920Z,87.64
2024-03-16T12:55:37.074Z,85.2
2024-03-16T12:56:46.339Z,89.11
2024-03-16T12:57:55.444Z,86.42
2024-03-16T12:59:04.451Z,87.15
2024-03-16T13:00:13.759Z,86.66
2024-03-16T13:01:22.913Z,86.91
2024-03-16T13:02:32.154Z,88.37
2024-03-16T13:03:40.388Z,87.4
2024-03-16T13:04:49.248Z,85.93
2024-03-16T13:05:58.760Z,85.44
2024-03-16T13:07:07.833Z,87.64
2024-03-16T13:09:26.179Z,86.91
2024-03-16T13:10:35.334Z,86.66
2024-03-16T13:11:44.656Z,86.91
2024-03-16T13:14:02.958Z,86.66
2024-03-16T13:15:11.986Z,87.89
2024-03-16T13:16:21.416Z,85.93
2024-03-16T13:17:29.518Z,104.49
2024-03-16T13:18:37.506Z,89.35
2024-03-16T13:19:46.959Z,86.18
2024-03-16T13:20:55.697Z,88.13
2024-03-16T13:22:05.015Z,85.93
2024-03-16T13:23:14.043Z,86.91
2024-03-16T13:24:23.208Z,84.71
2024-03-16T13:25:32.399Z,85.69
2024-03-16T13:27:50.833Z,84.96
2024-03-16T13:29:00.123Z,87.89
2024-03-16T13:30:09.400Z,87.64
2024-03-16T13:31:18.497Z,87.15
2024-03-16T13:32:27.812Z,88.37
2024-03-16T13:33:35.912Z,86.18
2024-03-16T13:34:45.107Z,86.91
2024-03-16T13:35:54.238Z,88.86
2024-03-16T13:37:03.142Z,89.35
2024-03-16T13:38:12.643Z,88.37
2024-03-16T13:39:21.804Z,88.86
2024-03-16T13:40:30.917Z,87.4
2024-03-16T13:41:39.042Z,88.62
2024-03-16T13:42:48.382Z,85.2
2024-03-16T13:43:56.543Z,85.44
2024-03-16T13:45:04.585Z,85.44
2024-03-16T13:46:13.761Z,85.44
2024-03-16T13:47:22.955Z,87.15
2024-03-16T13:48:32.248Z,85.93
2024-03-16T13:49:41.410Z,87.15
2024-03-16T13:50:50.582Z,84.96
2024-03-16T13:51:59.826Z,86.91
2024-03-16T13:53:08.945Z,87.64
2024-03-16T13:54:17.988Z,87.89
2024-03-16T13:55:27.254Z,87.4
2024-03-16T13:56:36.497Z,86.42
2024-03-16T13:57:45.435Z,86.18
2024-03-16T13:58:54.864Z,87.64
2024-03-16T14:00:03.057Z,86.91
2024-03-16T14:01:12.186Z,87.15
2024-03-16T14:02:21.311Z,87.64
2024-03-16T14:03:30.568Z,84.71
2024-03-16T14:04:39.548Z,85.93
2024-03-16T14:05:48.769Z,86.91
2024-03-16T14:06:56.701Z,86.18
2024-03-16T14:08:05.272Z,84.22
2024-03-16T14:09:14.360Z,88.37
2024-03-16T14:10:23.261Z,86.91
2024-03-16T14:11:32.631Z,87.64
2024-03-16T14:12:41.962Z,87.64
2024-03-16T14:13:50.984Z,86.91
2024-03-16T14:15:00.157Z,86.42
2024-03-16T14:16:09.372Z,86.66
2024-03-16T14:17:18.411Z,87.64
2024-03-16T14:18:27.662Z,85.93
2024-03-16T14:19:36.618Z,88.62
2024-03-16T14:20:46.087Z,90.82
2024-03-16T14:21:55.205Z,85.44
2024-03-16T14:23:03.428Z,85.93
2024-03-16T14:24:12.537Z,84.96
2024-03-16T14:25:21.729Z,86.91
2024-03-16T14:26:30.929Z,86.66
2024-03-16T14:27:40.213Z,89.11
2024-03-16T14:28:49.325Z,86.91
2024-03-16T14:29:57.596Z,86.18
2024-03-16T14:31:05.770Z,86.42
2024-03-16T14:32:13.752Z,86.66
2024-03-16T14:33:23.055Z,85.2
2024-03-16T14:34:32.165Z,87.15
2024-03-16T14:35:41.475Z,85.69
2024-03-16T14:36:50.269Z,85.44
2024-03-16T14:37:59.733Z,92.52
2024-03-16T14:39:08.607Z,88.86
2024-03-16T14:40:18.141Z,86.18
2024-03-16T14:41:27.316Z,86.42
2024-03-16T14:42:36.460Z,86.91
2024-03-16T14:43:45.358Z,89.59
2024-03-16T14:44:54.470Z,86.66
2024-03-16T14:46:04.076Z,86.66
2024-03-16T14:47:12.109Z,85.44
2024-03-16T14:48:21.311Z,87.89
2024-03-16T14:49:30.273Z,87.89
2024-03-16T14:50:39.715Z,89.35
2024-03-16T14:51:48.698Z,86.66
2024-03-16T14:52:58.098Z,86.91
2024-03-16T14:54:06.881Z,86.66
2024-03-16T14:55:16.359Z,86.18
2024-03-16T14:56:25.509Z,88.62
2024-03-16T14:57:34.644Z,87.89
2024-03-16T14:58:44.026Z,85.44
2024-03-16T14:59:53.073Z,89.11
2024-03-16T15:01:01.254Z,86.66
2024-03-16T15:02:09.459Z,87.64
2024-03-16T15:03:18.650Z,87.64
2024-03-16T15:04:27.664Z,85.93
2024-03-16T15:05:36.738Z,85.69
2024-03-16T15:06:46.023Z,86.18
2024-03-16T15:07:55.119Z,86.18
2024-03-16T15:09:04.460Z,87.15
2024-03-16T15:10:13.664Z,86.42
2024-03-16T15:11:22.755Z,90.57
2024-03-16T15:12:31.866Z,85.93
2024-03-16T15:13:41.022Z,85.69
2024-03-16T15:14:50.288Z,86.18
2024-03-16T15:15:59.481Z,86.91
2024-03-16T15:17:07.714Z,89.35
2024-03-16T15:18:16.595Z,87.64
2024-03-16T15:19:25.814Z,87.89
2024-03-16T15:20:35.143Z,90.08
2024-03-16T15:21:44.258Z,87.4
2024-03-16T15:22:53.566Z,88.86
2024-03-16T15:24:01.433Z,91.06